Time;durP1;ratioP1;P1;durP2;ratioP2;P2;SDS_P1;SDS_P2;PMS_P1;PMS_P2;Temp;Humidity;BMP_temperature;BMP_pressure;BME280_temperature;BME280_humidity;BME280_pressure;Samples;Min_cycle;Max_cycle;Signal;HPM_P1;HPM_P2
2021/04/25 00:01:58;;;;;;;5.47;5.00;;;;;;;4.14;78.89;95794.84;5047389;28;20225;-66
2021/04/25 00:04:25;;;;;;;7.30;5.57;;;;;;;4.07;78.86;95794.59;5066998;28;20222;-66
2021/04/25 00:06:52;;;;;;;5.30;4.80;;;;;;;4.04;78.34;95789.66;5066904;28;20256;-67
2021/04/25 00:09:20;;;;;;;5.07;4.63;;;;;;;4.00;78.58;95788.25;5070329;28;20462;-67
2021/04/25 00:11:48;;;;;;;10.60;7.90;;;;;;;3.89;79.36;95786.63;5067672;28;20718;-67
2021/04/25 00:14:15;;;;;;;5.03;4.23;;;;;;;3.84;80.19;95788.84;5067703;28;20308;-67
2021/04/25 00:16:42;;;;;;;5.83;4.97;;;;;;;3.82;79.60;95784.72;5066073;28;20225;-67
2021/04/25 00:19:09;;;;;;;5.50;4.80;;;;;;;3.84;80.01;95777.56;5061049;28;20224;-67
2021/04/25 00:21:36;;;;;;;7.93;5.10;;;;;;;3.80;79.70;95771.00;5075699;28;20316;-67
2021/04/25 00:24:05;;;;;;;6.07;5.57;;;;;;;3.86;80.42;95773.06;5071040;28;20296;-66
2021/04/25 00:26:31;;;;;;;6.93;5.47;;;;;;;3.89;80.82;95780.59;5074280;28;20250;-67
2021/04/25 00:28:59;;;;;;;5.33;4.90;;;;;;;3.89;81.42;95780.59;5047231;28;20254;-66
2021/04/25 00:31:26;;;;;;;5.10;4.67;;;;;;;3.88;80.25;95771.13;5071455;28;20830;-67
2021/04/25 00:33:53;;;;;;;6.90;6.30;;;;;;;3.84;79.75;95774.94;5069576;28;20363;-67
2021/04/25 00:36:20;;;;;;;6.40;5.07;;;;;;;3.74;80.12;95772.34;5073037;28;20219;-67
2021/04/25 00:38:47;;;;;;;10.50;7.03;;;;;;;3.71;80.56;95770.84;5075941;28;20230;-67
2021/04/25 00:41:15;;;;;;;6.87;6.33;;;;;;;3.68;81.82;95773.75;5052687;28;20250;-67
2021/04/25 00:43:42;;;;;;;9.03;5.80;;;;;;;3.59;81.85;95774.59;5053200;28;20220;-67
2021/04/25 00:46:09;;;;;;;5.37;4.83;;;;;;;3.45;82.20;95771.56;5073690;28;20223;-67
2021/04/25 00:48:36;;;;;;;5.23;4.73;;;;;;;3.46;82.58;95774.03;5055181;28;20252;-67
2021/04/25 00:51:04;;;;;;;6.17;5.67;;;;;;;3.48;82.30;95769.50;5067924;28;20313;-67
2021/04/25 00:53:31;;;;;;;6.77;6.17;;;;;;;3.49;82.24;95771.16;5054861;28;20256;-67
2021/04/25 00:55:58;;;;;;;5.20;4.43;;;;;;;3.48;81.84;95769.50;5070507;28;20637;-67
2021/04/25 00:58:25;;;;;;;4.77;4.37;;;;;;;3.50;82.33;95767.59;5062456;28;20255;-66
2021/04/25 01:00:52;;;;;;;6.33;5.20;;;;;;;3.47;82.33;95767.84;5065461;28;20270;-67
2021/04/25 01:03:22;;;;;;;5.37;4.60;;;;;;;3.49;82.77;95770.34;5069743;28;20349;-67
2021/04/25 01:05:50;;;;;;;4.70;4.30;;;;;;;3.50;82.82;95770.19;5062042;28;20280;-67
2021/04/25 01:08:17;;;;;;;16.33;6.60;;;;;;;3.52;83.77;95768.25;5064007;28;20287;-67
2021/04/25 01:10:44;;;;;;;5.57;3.27;;;;;;;3.54;83.43;95766.34;5063705;28;20304;-66
2021/04/25 01:13:15;;;;;;;5.57;4.83;;;;;;;3.54;82.85;95761.13;5074912;28;20379;-66
2021/04/25 01:15:43;;;;;;;5.17;4.00;;;;;;;3.58;82.03;95759.91;5076689;28;20300;-67
2021/04/25 01:18:10;;;;;;;4.60;4.20;;;;;;;3.60;81.32;95770.19;5073723;28;20237;-67
2021/04/25 01:20:37;;;;;;;3.90;3.63;;;;;;;3.61;81.20;95772.66;5067579;28;20220;-67
2021/04/25 01:23:05;;;;;;;6.53;5.63;;;;;;;3.63;81.40;95759.47;5072810;28;20238;-67
2021/04/25 01:25:32;;;;;;;3.63;3.33;;;;;;;3.64;80.32;95767.16;5070751;28;20231;-67
2021/04/25 01:27:59;;;;;;;3.97;3.67;;;;;;;3.66;79.89;95767.84;5052167;28;20245;-67
2021/04/25 01:30:29;;;;;;;4.13;3.90;;;;;;;3.68;79.09;95767.72;5074896;28;20234;-67
2021/04/25 01:32:56;;;;;;;5.17;4.67;;;;;;;3.68;79.04;95768.53;5070207;28;20335;-67
2021/04/25 01:35:25;;;;;;;4.27;3.97;;;;;;;3.69;78.32;95764.97;5066437;28;20719;-67
2021/04/25 01:37:54;;;;;;;4.47;4.07;;;;;;;3.70;78.76;95771.81;5073735;28;20597;-66
2021/04/25 01:40:23;;;;;;;3.43;3.13;;;;;;;3.69;78.41;95770.19;5058113;28;20295;-67
2021/04/25 01:42:50;;;;;;;3.93;3.60;;;;;;;3.71;78.87;95773.47;5064765;28;20794;-66
2021/04/25 01:45:17;;;;;;;5.37;3.73;;;;;;;3.70;80.30;95792.69;5070938;28;20762;-67
2021/04/25 01:47:45;;;;;;;4.80;4.30;;;;;;;3.71;80.91;95799.56;5073326;28;20215;-66
2021/04/25 01:50:13;;;;;;;5.50;4.97;;;;;;;3.70;81.12;95787.47;5046407;28;20274;-67
2021/04/25 01:52:40;;;;;;;6.53;4.40;;;;;;;3.70;81.59;95792.69;5073086;28;20320;-67
2021/04/25 01:55:08;;;;;;;7.23;5.27;;;;;;;3.68;81.93;95799.84;5068958;28;20315;-67
2021/04/25 01:57:36;;;;;;;5.77;5.30;;;;;;;3.65;81.99;95789.66;5066710;28;20899;-66
2021/04/25 02:00:05;;;;;;;3.73;3.43;;;;;;;3.64;81.26;95793.25;5063696;28;20665;-67
2021/04/25 02:02:39;;;;;;;5.40;4.73;;;;;;;3.63;82.14;95786.38;5069412;28;20682;-66
2021/04/25 02:05:08;;;;;;;4.37;3.97;;;;;;;3.63;82.30;95796.00;5063281;28;20238;-67
2021/04/25 02:07:34;;;;;;;4.77;4.10;;;;;;;3.61;82.02;95788.31;5067879;28;20221;-67
2021/04/25 02:10:03;;;;;;;6.50;4.40;;;;;;;3.59;82.22;95787.63;5065993;28;20221;-67
2021/04/25 02:12:30;;;;;;;4.47;4.07;;;;;;;3.59;81.69;95784.19;5069004;28;20238;-67
2021/04/25 02:14:58;;;;;;;4.77;4.30;;;;;;;3.58;81.69;95785.16;5076051;28;20224;-66
2021/04/25 02:17:25;;;;;;;4.80;4.27;;;;;;;3.55;82.39;95781.03;5080196;28;20223;-67
2021/04/25 02:19:52;;;;;;;5.50;4.73;;;;;;;3.50;82.32;95785.84;5067192;28;20275;-67
2021/04/25 02:22:19;;;;;;;5.20;4.70;;;;;;;3.46;82.59;95789.66;5070766;28;20267;-67
2021/04/25 02:24:46;;;;;;;4.13;3.83;;;;;;;3.45;82.86;95789.81;5072835;28;20292;-67
2021/04/25 02:27:12;;;;;;;4.07;3.77;;;;;;;3.40;83.92;95785.03;5070786;28;20279;-67
2021/04/25 02:29:39;;;;;;;4.93;4.43;;;;;;;3.38;84.20;95776.47;5077418;28;20728;-67
2021/04/25 02:32:07;;;;;;;5.67;5.27;;;;;;;3.38;84.64;95781.69;5073278;28;20310;-66
2021/04/25 02:34:34;;;;;;;4.17;3.77;;;;;;;3.38;83.82;95781.69;5075570;28;20221;-66
2021/04/25 02:37:01;;;;;;;4.43;4.10;;;;;;;3.37;84.03;95775.66;5073938;28;21619;-67
2021/04/25 02:39:28;;;;;;;5.30;4.43;;;;;;;3.26;84.94;95783.63;5074750;28;20242;-66
2021/04/25 02:41:54;;;;;;;5.10;4.70;;;;;;;3.26;84.14;95782.81;5069527;28;20241;-67
2021/04/25 02:44:21;;;;;;;5.37;4.87;;;;;;;3.21;83.49;95790.22;5069640;28;20689;-67
2021/04/25 02:46:48;;;;;;;3.97;3.10;;;;;;;3.20;83.92;95788.56;5065879;28;20302;-66
2021/04/25 02:49:16;;;;;;;5.43;4.40;;;;;;;3.23;84.60;95788.31;5062875;28;20321;-66
2021/04/25 02:51:44;;;;;;;5.90;5.37;;;;;;;3.25;84.24;95787.19;5055124;28;20303;-67
2021/04/25 02:54:11;;;;;;;3.93;3.30;;;;;;;3.28;83.48;95791.31;5071533;28;20278;-67
2021/04/25 02:56:37;;;;;;;4.53;3.90;;;;;;;3.28;82.93;95788.69;5066856;28;20313;-67
2021/04/25 02:59:04;;;;;;;4.37;3.97;;;;;;;3.25;82.43;95796.81;5065458;28;20766;-66
2021/04/25 03:01:31;;;;;;;5.30;4.80;;;;;;;3.25;83.26;95802.03;5066115;28;20285;-67
2021/04/25 03:03:58;;;;;;;4.13;3.83;;;;;;;3.19;83.89;95807.78;5050604;28;20311;-66
2021/04/25 03:06:26;;;;;;;5.37;3.90;;;;;;;3.11;83.96;95806.69;5076353;28;20637;-66
2021/04/25 03:08:52;;;;;;;4.30;3.90;;;;;;;3.01;83.87;95799.78;5055570;28;20454;-67
2021/04/25 03:11:19;;;;;;;4.17;3.77;;;;;;;2.95;84.32;95795.94;5072024;28;20436;-66
2021/04/25 03:13:46;;;;;;;3.63;3.33;;;;;;;2.89;84.27;95796.47;5066789;28;20296;-67
2021/04/25 03:16:14;;;;;;;7.60;4.27;;;;;;;2.87;84.37;95787.13;5076985;28;20217;-67
2021/04/25 03:18:41;;;;;;;4.73;4.23;;;;;;;2.85;84.12;95789.88;5056579;28;20284;-67
2021/04/25 03:21:08;;;;;;;5.73;5.13;;;;;;;2.85;85.07;95795.09;5072774;28;20276;-67
2021/04/25 03:23:41;;;;;;;5.17;4.77;;;;;;;2.90;85.23;95787.69;5064610;28;20572;-66
2021/04/25 03:26:08;;;;;;;4.83;4.47;;;;;;;2.92;85.12;95790.97;5067721;28;20317;-66
2021/04/25 03:28:35;;;;;;;3.93;3.73;;;;;;;2.89;85.41;95788.63;5070282;28;20244;-67
2021/04/25 03:31:02;;;;;;;4.10;3.80;;;;;;;2.85;85.82;95784.66;5054070;28;20249;-67
2021/04/25 03:33:29;;;;;;;4.63;4.20;;;;;;;2.87;85.18;95781.91;5073124;28;20623;-67
2021/04/25 03:35:56;;;;;;;9.73;6.63;;;;;;;2.86;85.48;95775.88;5069606;28;20222;-66
2021/04/25 03:38:25;;;;;;;5.07;4.67;;;;;;;2.97;84.65;95780.97;5068448;28;20761;-66
2021/04/25 03:40:53;;;;;;;5.83;4.20;;;;;;;2.97;83.71;95780.16;5069162;28;20269;-67
2021/04/25 03:43:20;;;;;;;3.90;3.60;;;;;;;2.88;83.73;95787.00;5066091;28;20318;-67
2021/04/25 03:45:46;;;;;;;5.03;4.63;;;;;;;2.85;84.00;95787.28;5064967;28;20302;-67
2021/04/25 03:48:13;;;;;;;4.23;3.87;;;;;;;2.81;84.63;95783.25;5068872;28;20213;-67
2021/04/25 03:50:40;;;;;;;5.83;5.30;;;;;;;2.77;85.57;95787.09;5067319;28;20230;-66
2021/04/25 03:53:07;;;;;;;4.27;3.97;;;;;;;2.73;85.27;95785.72;5067073;28;20273;-65
2021/04/25 03:55:34;;;;;;;5.17;4.00;;;;;;;2.70;84.93;95784.19;5068193;28;21668;-65
2021/04/25 03:58:02;;;;;;;4.80;4.50;;;;;;;2.65;84.73;95788.16;5047254;28;20631;-65
2021/04/25 04:00:29;;;;;;;5.37;4.83;;;;;;;2.58;84.88;95787.06;5069027;28;20301;-65
2021/04/25 04:02:59;;;;;;;5.20;4.80;;;;;;;2.58;84.67;95787.88;5075502;28;20221;-64
2021/04/25 04:05:26;;;;;;;5.93;4.43;;;;;;;2.52;84.68;95784.00;5041794;28;20319;-65
2021/04/25 04:07:53;;;;;;;4.57;3.77;;;;;;;2.50;84.61;95788.53;5070493;28;20217;-65
2021/04/25 04:10:20;;;;;;;4.47;4.07;;;;;;;2.50;85.78;95788.53;5072474;28;20255;-65
2021/04/25 04:12:47;;;;;;;5.20;4.03;;;;;;;2.51;85.89;95792.78;5073915;28;20257;-63
2021/04/25 04:15:15;;;;;;;5.97;4.23;;;;;;;2.54;85.89;95796.88;5075628;28;20238;-65
2021/04/25 04:17:42;;;;;;;8.33;6.30;;;;;;;2.55;85.97;95799.34;5074894;28;20286;-65
2021/04/25 04:20:10;;;;;;;7.87;4.73;;;;;;;2.53;87.23;95803.88;5073171;28;20246;-65
2021/04/25 04:22:37;;;;;;;6.07;5.57;;;;;;;2.37;87.24;95806.13;5076390;28;20249;-63
2021/04/25 04:25:05;;;;;;;4.03;3.63;;;;;;;2.37;86.59;95810.50;5074895;28;20238;-65
2021/04/25 04:27:32;;;;;;;6.03;4.97;;;;;;;1.94;86.23;95816.72;5070474;28;20296;-65
2021/04/25 04:29:59;;;;;;;5.83;5.23;;;;;;;1.92;87.86;95827.28;5072418;28;20221;-64
2021/04/25 04:32:27;;;;;;;7.63;5.20;;;;;;;1.92;87.59;95824.69;5066952;28;20721;-65
2021/04/25 04:34:55;;;;;;;5.73;5.33;;;;;;;1.92;87.48;95832.47;5071199;28;20579;-65
2021/04/25 04:37:22;;;;;;;6.30;5.70;;;;;;;1.99;87.66;95831.00;5073328;28;20602;-65
2021/04/25 04:39:49;;;;;;;6.23;4.70;;;;;;;2.07;87.36;95832.16;5073831;28;20241;-65
2021/04/25 04:42:16;;;;;;;5.23;4.73;;;;;;;2.09;86.50;95823.25;5070030;28;20304;-64
2021/04/25 04:44:43;;;;;;;4.57;4.17;;;;;;;2.12;86.84;95832.59;5068667;28;20218;-65
2021/04/25 04:47:10;;;;;;;4.07;3.77;;;;;;;2.06;87.44;95831.31;5069517;28;20242;-65
2021/04/25 04:49:37;;;;;;;8.67;4.33;;;;;;;2.13;86.63;95829.88;5063113;28;20447;-65
2021/04/25 04:52:05;;;;;;;4.67;4.30;;;;;;;2.20;86.45;95828.41;5070988;28;20328;-65
2021/04/25 04:54:31;;;;;;;7.47;5.43;;;;;;;2.36;85.89;95830.53;5070258;28;20226;-65
2021/04/25 04:56:58;;;;;;;5.13;4.73;;;;;;;2.47;87.38;95833.06;5065534;28;20305;-65
2021/04/25 04:59:25;;;;;;;5.83;4.80;;;;;;;2.55;86.70;95843.63;5061759;28;20256;-65
2021/04/25 05:01:52;;;;;;;6.83;3.93;;;;;;;2.70;85.70;95843.31;5064044;28;20214;-65
2021/04/25 05:04:19;;;;;;;5.70;5.20;;;;;;;2.77;86.31;95853.06;5063594;28;20258;-65
2021/04/25 05:06:47;;;;;;;9.37;4.40;;;;;;;2.86;86.20;95848.88;5064040;28;20305;-65
2021/04/25 05:09:13;;;;;;;6.80;5.07;;;;;;;2.96;87.18;95860.16;5062417;28;20284;-65
2021/04/25 05:11:40;;;;;;;5.73;5.23;;;;;;;3.12;86.14;95859.66;5054825;28;20706;-65
2021/04/25 05:14:07;;;;;;;4.93;4.60;;;;;;;3.27;84.76;95852.25;5063844;28;20279;-65
2021/04/25 05:16:34;;;;;;;6.13;5.60;;;;;;;3.39;85.18;95859.84;5063514;28;20246;-65
2021/04/25 05:19:02;;;;;;;8.67;5.77;;;;;;;3.48;85.45;95866.03;5037690;28;20437;-64
2021/04/25 05:21:29;;;;;;;5.93;4.47;;;;;;;3.68;84.34;95856.44;5056653;28;20250;-65
2021/04/25 05:23:56;;;;;;;5.27;4.87;;;;;;;3.85;83.57;95857.56;5064258;28;20226;-65
2021/04/25 05:26:23;;;;;;;7.20;5.87;;;;;;;3.98;82.93;95868.53;5049428;28;20228;-65
2021/04/25 05:28:50;;;;;;;5.40;4.93;;;;;;;4.08;81.85;95864.13;5063175;28;20301;-65
2021/04/25 05:31:17;;;;;;;7.57;5.87;;;;;;;4.23;81.26;95857.50;5064045;28;20275;-65
2021/04/25 05:33:44;;;;;;;5.77;5.23;;;;;;;4.31;81.61;95864.66;5064502;28;20231;-64
2021/04/25 05:36:11;;;;;;;7.90;6.33;;;;;;;4.40;81.06;95873.44;5065259;28;20209;-64
2021/04/25 05:38:38;;;;;;;6.60;5.93;;;;;;;4.52;81.06;95862.66;5067255;28;20386;-66
2021/04/25 05:41:06;;;;;;;5.80;5.40;;;;;;;4.67;81.20;95865.66;5067566;28;20229;-65
2021/04/25 05:43:33;;;;;;;7.00;6.30;;;;;;;4.79;81.31;95864.53;5065728;28;20270;-65
2021/04/25 05:46:01;;;;;;;6.50;5.90;;;;;;;4.90;81.03;95866.13;5065979;28;20752;-65
2021/04/25 05:48:28;;;;;;;10.90;6.93;;;;;;;5.08;81.65;95874.03;5066985;28;20306;-65
2021/04/25 05:50:55;;;;;;;9.77;8.90;;;;;;;5.22;81.20;95876.19;5070587;28;20216;-65
2021/04/25 05:53:21;;;;;;;5.80;5.37;;;;;;;5.39;80.83;95882.41;5069705;28;20298;-65
2021/04/25 05:55:48;;;;;;;7.93;7.23;;;;;;;5.58;80.22;95876.25;5071680;28;20236;-65
2021/04/25 05:58:16;;;;;;;7.40;6.80;;;;;;;5.74;79.68;95876.41;5074065;28;20266;-66
2021/04/25 06:00:43;;;;;;;7.10;6.47;;;;;;;5.91;78.49;95869.56;5077472;28;20745;-65
2021/04/25 06:03:10;;;;;;;11.63;10.43;;;;;;;6.04;78.77;95867.41;5074532;28;20259;-64
2021/04/25 06:05:36;;;;;;;11.37;8.50;;;;;;;6.18;78.37;95879.13;5068724;28;20218;-65
2021/04/25 06:08:04;;;;;;;13.13;11.83;;;;;;;6.30;77.90;95877.91;5061881;28;20699;-65
2021/04/25 06:10:31;;;;;;;10.20;9.27;;;;;;;6.40;77.79;95873.41;5069358;28;20248;-66
2021/04/25 06:12:58;;;;;;;9.83;8.87;;;;;;;6.53;76.87;95879.06;5062827;28;20226;-65
2021/04/25 06:15:26;;;;;;;10.67;9.70;;;;;;;6.65;75.90;95881.44;5066333;28;20293;-65
2021/04/25 06:17:53;;;;;;;14.03;10.20;;;;;;;6.82;75.38;95877.94;5054682;28;20313;-65
2021/04/25 06:20:21;;;;;;;8.83;7.90;;;;;;;6.95;74.83;95878.34;5065423;28;20221;-65
2021/04/25 06:22:48;;;;;;;11.17;9.47;;;;;;;7.05;74.79;95879.06;5065351;28;20249;-65
2021/04/25 06:25:16;;;;;;;12.50;8.20;;;;;;;7.19;74.64;95879.44;5046816;28;20264;-65
2021/04/25 06:27:43;;;;;;;9.60;8.90;;;;;;;7.27;74.24;95876.84;5071606;28;20222;-66
2021/04/25 06:30:12;;;;;;;8.20;7.53;;;;;;;7.42;73.65;95875.28;5066265;28;20226;-66
2021/04/25 06:32:40;;;;;;;13.80;10.93;;;;;;;7.39;72.36;95880.81;5069687;28;20310;-65
2021/04/25 06:35:11;;;;;;;10.57;8.80;;;;;;;7.52;73.06;95881.22;5059939;28;20229;-66
2021/04/25 06:37:38;;;;;;;10.90;10.07;;;;;;;7.64;71.63;95876.47;5061120;28;20211;-65
2021/04/25 06:40:09;;;;;;;12.13;10.83;;;;;;;7.80;71.25;95880.97;5069897;28;20225;-65
2021/04/25 06:42:38;;;;;;;12.70;11.07;;;;;;;7.85;70.94;95881.28;5069640;28;20245;-65
2021/04/25 06:45:08;;;;;;;10.13;9.23;;;;;;;7.94;70.75;95882.94;5072583;28;20241;-65
2021/04/25 06:47:35;;;;;;;11.70;9.27;;;;;;;8.05;70.20;95885.28;5066876;28;20217;-66
2021/04/25 06:50:03;;;;;;;10.37;9.37;;;;;;;8.14;69.42;95886.94;5056902;28;20231;-66
2021/04/25 06:52:30;;;;;;;10.30;9.40;;;;;;;8.22;69.71;95897.44;5074490;28;20622;-66
2021/04/25 06:54:57;;;;;;;10.97;9.97;;;;;;;8.39;69.94;95889.56;5069687;28;20544;-66
2021/04/25 06:57:24;;;;;;;10.27;9.30;;;;;;;8.47;69.41;95893.03;5060563;28;20398;-65
2021/04/25 06:59:51;;;;;;;10.17;9.10;;;;;;;8.59;69.28;95890.88;5069627;28;20300;-66
2021/04/25 07:02:18;;;;;;;10.60;9.63;;;;;;;8.63;68.25;95891.38;5073067;28;20242;-65
2021/04/25 07:04:45;;;;;;;12.90;11.10;;;;;;;8.73;68.18;95892.03;5071825;28;20228;-66
2021/04/25 07:07:12;;;;;;;11.83;10.83;;;;;;;8.87;68.05;95893.16;5070032;28;20226;-66
2021/04/25 07:09:41;;;;;;;8.23;7.63;;;;;;;9.01;67.56;95895.09;5068223;28;20730;-65
2021/04/25 07:12:09;;;;;;;17.60;12.27;;;;;;;9.12;66.65;95898.19;5049820;28;20232;-65
2021/04/25 07:14:35;;;;;;;10.63;9.67;;;;;;;9.24;65.86;95896.03;5073886;28;20631;-66
2021/04/25 07:17:03;;;;;;;10.87;8.70;;;;;;;9.23;65.02;95888.28;5075489;28;20318;-65
2021/04/25 07:19:30;;;;;;;12.50;11.40;;;;;;;9.31;65.29;95904.06;5064182;28;20575;-66
2021/04/25 07:21:57;;;;;;;10.63;9.73;;;;;;;9.43;65.45;95897.44;5057146;28;20244;-65
2021/04/25 07:24:25;;;;;;;9.97;8.97;;;;;;;9.50;66.07;95895.75;5059407;28;20229;-65
2021/04/25 07:26:52;;;;;;;11.13;9.80;;;;;;;9.67;65.81;95897.31;5054477;28;20500;-65
2021/04/25 07:29:19;;;;;;;9.30;8.50;;;;;;;9.85;65.77;95901.53;5050763;28;20253;-65
2021/04/25 07:31:49;;;;;;;16.93;11.63;;;;;;;9.94;64.51;95903.94;5045361;28;20256;-66
2021/04/25 07:34:16;;;;;;;9.77;8.83;;;;;;;10.12;64.53;95893.13;5046214;28;20356;-66
2021/04/25 07:36:43;;;;;;;13.23;11.50;;;;;;;10.20;63.17;95902.78;5044307;28;20754;-66
2021/04/25 07:39:10;;;;;;;10.60;9.70;;;;;;;10.21;63.15;95902.59;5053712;28;20214;-66
2021/04/25 07:41:38;;;;;;;12.50;11.00;;;;;;;10.21;62.42;95897.34;5042783;28;20223;-66
2021/04/25 07:44:05;;;;;;;10.93;9.70;;;;;;;10.35;62.07;95901.06;5042707;28;20265;-65
2021/04/25 07:46:32;;;;;;;8.87;8.07;;;;;;;10.45;60.65;95903.47;5049739;28;20222;-66
2021/04/25 07:49:00;;;;;;;16.23;10.80;;;;;;;10.48;61.46;95906.56;5053343;28;20224;-65
2021/04/25 07:51:27;;;;;;;11.53;10.33;;;;;;;10.54;60.65;95908.50;5074126;28;20238;-66
2021/04/25 07:53:54;;;;;;;10.83;9.93;;;;;;;10.68;61.85;95906.88;5061012;28;20253;-65
2021/04/25 07:56:21;;;;;;;10.17;9.13;;;;;;;10.84;60.68;95903.28;5061961;28;20960;-66
2021/04/25 07:58:49;;;;;;;11.20;10.23;;;;;;;10.97;60.08;95906.16;5060886;28;20735;-65
2021/04/25 08:01:18;;;;;;;10.87;9.93;;;;;;;11.15;60.56;95907.59;5056279;28;20232;-65
2021/04/25 08:03:44;;;;;;;17.30;11.23;;;;;;;11.26;60.81;95901.91;5068562;28;20704;-65
2021/04/25 08:06:11;;;;;;;11.63;10.70;;;;;;;11.39;60.64;95910.00;5071027;28;20215;-66
2021/04/25 08:08:38;;;;;;;10.53;9.60;;;;;;;11.58;57.78;95904.16;5063865;28;20727;-65
2021/04/25 08:11:06;;;;;;;9.23;8.53;;;;;;;11.71;58.87;95902.69;5054049;28;20291;-66
2021/04/25 08:13:33;;;;;;;10.17;9.47;;;;;;;11.84;57.97;95898.41;5037726;28;20723;-66
2021/04/25 08:16:01;;;;;;;15.53;8.30;;;;;;;12.06;58.63;95896.59;5022206;28;20339;-66
2021/04/25 08:18:28;;;;;;;10.63;9.77;;;;;;;12.23;58.04;95890.06;5038030;28;20308;-65
2021/04/25 08:20:55;;;;;;;23.80;12.13;;;;;;;12.32;57.25;95889.94;5039978;28;20215;-65
2021/04/25 08:23:22;;;;;;;11.00;10.17;;;;;;;12.64;56.19;95899.22;5062560;28;20533;-66
2021/04/25 08:25:49;;;;;;;12.90;11.37;;;;;;;12.72;54.56;95894.59;5069442;28;20226;-65
2021/04/25 08:28:18;;;;;;;12.23;10.63;;;;;;;12.72;55.23;95897.25;5071741;28;20451;-65
2021/04/25 08:30:45;;;;;;;10.60;8.87;;;;;;;12.84;56.52;95904.66;5069715;28;20589;-66
2021/04/25 08:33:12;;;;;;;12.40;9.70;;;;;;;13.02;53.77;95903.19;5071898;28;20267;-65
2021/04/25 08:35:39;;;;;;;11.13;10.20;;;;;;;13.10;54.75;95895.09;5068968;28;20305;-66
2021/04/25 08:38:06;;;;;;;10.93;9.97;;;;;;;13.34;54.21;95896.47;5075599;28;20214;-66
2021/04/25 08:40:33;;;;;;;11.70;9.90;;;;;;;13.65;53.04;95897.88;5076273;28;20221;-65
2021/04/25 08:43:01;;;;;;;13.83;10.87;;;;;;;13.63;54.77;95897.28;5071368;28;20699;-66
2021/04/25 08:45:28;;;;;;;11.97;10.80;;;;;;;14.01;54.27;95894.16;5050625;28;21047;-66
2021/04/25 08:47:57;;;;;;;10.17;9.37;;;;;;;14.19;52.83;95883.78;5071632;28;20314;-65
2021/04/25 08:50:29;;;;;;;12.17;11.17;;;;;;;14.31;53.60;95882.19;5062684;28;20308;-66
2021/04/25 08:52:56;;;;;;;11.50;9.87;;;;;;;14.59;52.80;95874.06;5071721;28;20236;-66
2021/04/25 08:55:27;;;;;;;10.67;9.70;;;;;;;14.81;51.41;95877.34;5069884;28;20222;-67
2021/04/25 08:57:54;;;;;;;10.20;9.17;;;;;;;14.80;51.21;95881.00;5064762;28;20555;-66
2021/04/25 09:00:21;;;;;;;10.83;9.77;;;;;;;14.94;51.02;95879.19;5067270;28;20225;-66
2021/04/25 09:02:51;;;;;;;14.03;10.33;;;;;;;15.21;51.82;95886.09;5065840;28;20254;-66
2021/04/25 09:05:18;;;;;;;10.03;9.17;;;;;;;15.24;49.67;95879.56;5050289;28;20244;-66
2021/04/25 09:07:54;;;;;;;12.43;11.37;;;;;;;15.47;49.83;95879.09;5048901;28;22683;-66
2021/04/25 09:10:29;;;;;;;10.57;9.50;;;;;;;15.82;49.46;95875.13;5051800;28;20245;-67
2021/04/25 09:12:56;;;;;;;10.07;9.27;;;;;;;16.11;48.13;95876.44;5063871;28;20935;-66
2021/04/25 09:15:29;;;;;;;10.47;9.50;;;;;;;15.99;48.28;95872.78;5071980;28;20299;-66
2021/04/25 09:17:57;;;;;;;10.50;9.60;;;;;;;15.93;47.95;95876.31;5073586;28;20719;-66
2021/04/25 09:20:43;;;;;;;11.50;10.50;;;;;;;16.21;48.82;95868.78;5070094;28;20245;-66
2021/04/25 09:23:13;;;;;;;13.93;11.43;;;;;;;16.37;46.83;95866.66;5063486;28;20701;-66
2021/04/25 09:25:53;;;;;;;9.80;8.93;;;;;;;16.51;46.07;95868.19;5069464;28;20741;-65
2021/04/25 09:28:19;;;;;;;11.70;10.63;;;;;;;16.75;48.24;95862.09;5070182;28;20709;-66
2021/04/25 09:30:58;;;;;;;11.30;10.10;;;;;;;16.93;48.44;95857.88;5043180;28;20250;-66
2021/04/25 09:33:27;;;;;;;10.20;9.27;;;;;;;17.49;47.93;95855.03;5051663;28;20223;-66
2021/04/25 09:35:56;;;;;;;10.63;9.30;;;;;;;17.66;44.73;95855.28;5029759;28;20579;-66
2021/04/25 09:38:33;;;;;;;11.60;10.60;;;;;;;17.69;45.84;95854.81;5048430;28;20296;-68
2021/04/25 09:40:59;;;;;;;9.17;8.33;;;;;;;17.61;45.14;95857.78;5051334;28;20414;-69
2021/04/25 09:43:26;;;;;;;9.43;8.57;;;;;;;17.74;44.03;95860.34;5049266;28;20325;-68
2021/04/25 09:45:54;;;;;;;9.37;8.43;;;;;;;17.83;43.90;95853.66;5050770;28;20659;-69
2021/04/25 09:48:24;;;;;;;9.47;8.23;;;;;;;18.00;45.58;95855.69;5067130;28;20253;-69
2021/04/25 09:51:22;;;;;;;10.63;9.83;;;;;;;17.86;43.30;95850.53;5065646;28;20255;-69
2021/04/25 09:54:01;;;;;;;11.07;10.07;;;;;;;17.97;43.97;95848.94;5067807;28;20244;-68
2021/04/25 09:56:39;;;;;;;9.47;8.67;;;;;;;18.38;43.43;95848.19;5067099;28;20282;-69
2021/04/25 09:59:08;;;;;;;8.77;7.90;;;;;;;18.44;42.94;95851.78;5059936;28;20308;-69
2021/04/25 10:01:37;;;;;;;10.67;9.30;;;;;;;18.49;43.25;95854.63;5064539;28;20224;-69
2021/04/25 10:04:06;;;;;;;8.77;7.97;;;;;;;18.58;42.14;95841.72;5065145;28;20306;-69
2021/04/25 10:06:48;;;;;;;7.03;6.20;;;;;;;18.94;43.35;95846.94;5051545;28;20585;-69
2021/04/25 10:09:16;;;;;;;9.23;8.53;;;;;;;19.20;41.72;95851.00;5073222;28;20245;-68
2021/04/25 10:11:43;;;;;;;8.97;8.33;;;;;;;18.96;42.09;95847.50;5069053;28;20253;-68
2021/04/25 10:14:11;;;;;;;7.97;7.37;;;;;;;19.47;41.18;95845.97;5072852;28;20644;-69
2021/04/25 10:16:41;;;;;;;6.53;6.07;;;;;;;19.69;40.87;95838.19;5069377;28;20324;-69
2021/04/25 10:19:09;;;;;;;7.07;6.43;;;;;;;19.81;39.92;95835.47;5071873;28;20290;-69
2021/04/25 10:21:36;;;;;;;8.07;7.40;;;;;;;19.84;40.24;95837.66;5074514;28;20214;-68
2021/04/25 10:24:04;;;;;;;8.70;7.83;;;;;;;19.82;41.50;95847.78;5072795;28;20229;-68
2021/04/25 10:26:35;;;;;;;9.97;9.23;;;;;;;19.79;41.74;95842.94;5054507;28;22013;-68
2021/04/25 10:29:06;;;;;;;8.03;7.37;;;;;;;20.13;41.57;95836.66;5064602;28;20370;-69
2021/04/25 10:31:35;;;;;;;8.43;7.63;;;;;;;20.65;39.47;95831.16;5068453;28;20242;-68
2021/04/25 10:34:06;;;;;;;8.40;7.73;;;;;;;20.91;37.51;95828.88;5067841;28;20695;-68
2021/04/25 10:37:05;;;;;;;8.93;8.10;;;;;;;20.80;36.72;95822.53;5065126;28;20230;-68
2021/04/25 10:39:38;;;;;;;7.93;7.37;;;;;;;21.11;38.42;95831.88;5047041;28;20719;-67
2021/04/25 10:42:37;;;;;;;5.90;5.40;;;;;;;21.19;38.87;95826.09;5041190;28;20293;-68
2021/04/25 10:45:24;;;;;;;12.13;7.77;;;;;;;21.71;38.48;95822.25;5050735;28;20273;-68
2021/04/25 10:48:23;;;;;;;7.43;6.80;;;;;;;22.29;38.69;95829.66;5046007;28;20435;-69
2021/04/25 10:51:12;;;;;;;6.63;6.20;;;;;;;21.83;36.65;95826.44;5037702;28;20215;-68
2021/04/25 10:53:41;;;;;;;8.10;7.50;;;;;;;21.42;37.26;95827.00;5047714;28;20491;-69
2021/04/25 10:56:30;;;;;;;5.97;5.60;;;;;;;20.57;37.63;95823.50;5071906;28;20257;-69
2021/04/25 10:59:31;;;;;;;7.00;6.23;;;;;;;20.20;40.50;95816.91;5056096;28;20250;-69
2021/04/25 11:02:00;;;;;;;6.50;5.90;;;;;;;20.96;40.74;95820.94;5061435;28;20242;-69
2021/04/25 11:05:06;;;;;;;8.27;7.47;;;;;;;21.03;37.73;95816.22;5065684;28;20603;-68
2021/04/25 11:07:35;;;;;;;6.77;6.17;;;;;;;20.76;38.92;95816.06;5065143;28;20222;-68
2021/04/25 11:10:03;;;;;;;7.90;5.80;;;;;;;20.30;39.36;95811.72;5070336;28;20209;-69
2021/04/25 11:12:46;;;;;;;9.93;5.37;;;;;;;19.44;39.69;95816.19;5070459;28;20662;-68
2021/04/25 11:15:52;;;;;;;6.20;5.67;;;;;;;18.39;37.82;95822.28;5067306;28;20301;-68
2021/04/25 11:18:45;;;;;;;6.70;6.27;;;;;;;18.08;37.87;95816.13;5072834;28;20213;-69
2021/04/25 11:21:46;;;;;;;6.43;5.83;;;;;;;18.31;39.19;95815.41;5069569;28;20593;-68
2021/04/25 11:24:33;;;;;;;4.63;3.93;;;;;;;19.25;38.56;95812.84;5058733;28;20630;-69
2021/04/25 11:27:02;;;;;;;6.17;5.37;;;;;;;19.29;35.86;95822.00;5074076;28;20506;-69
2021/04/25 11:30:06;;;;;;;5.77;5.27;;;;;;;20.02;39.81;95821.41;5064103;28;20253;-69
2021/04/25 11:32:39;;;;;;;6.43;5.70;;;;;;;20.48;37.48;95819.59;5051860;28;20302;-69
2021/04/25 11:35:13;;;;;;;6.47;5.97;;;;;;;21.09;37.02;95811.72;5060802;28;20226;-69
2021/04/25 11:37:42;;;;;;;7.43;5.83;;;;;;;20.66;35.37;95811.31;5061172;28;20695;-69
2021/04/25 11:40:11;;;;;;;5.30;4.80;;;;;;;21.16;37.06;95810.50;5060962;28;20477;-69
2021/04/25 11:42:47;;;;;;;5.37;5.07;;;;;;;20.30;35.80;95801.84;5057345;28;20325;-68
2021/04/25 11:45:25;;;;;;;8.40;5.27;;;;;;;20.24;36.89;95812.72;5060553;28;20279;-69